Airfield :
LOGIN :

Register | Disclaimer

   EN    FR    IT 

 










Legend :    VFR   Marginal VFR   IFR   Intensive IFR   Very Intensive IFR
Visi :
Ceiling :
>= 8 km
>= 3000ft
5 to 8 km
1000 to 3000 ft
1500m to 5 km
500 to 1000 ft
800 to 1500m
200 to 500 ft
< 800m
< 200 ft
Symbols :   Thunderstorms  Fog  Heavy snow  Heavy precipitations  Wind > 20 kt
SIGMETs :     Misc.  Thunderstorms  Icing  Turbulence  Mountain Waves  Volcanic Ashes






- Airport Elevation : 154 ft
- IATA code : PKV


ULOO - Pskov

CURRENT METAR :
  • 251230Z 19003MPS 160V220 9999 SCT020 03/M03 Q0999 R19/090060 NOSIG RMK QFE745

EXPIRED METARs :
  • 251200Z 17003MPS 130V220 9999 SCT020 03/M03 Q1000 R19/090060 NOSIG RMK QFE746
  • 251130Z 18003MPS 130V220 9999 SCT019 03/M03 Q1000 R19/090060 NOSIG RMK QFE746
  • 251100Z 19003MPS 130V220 9999 FEW017 03/M03 Q1000 R19/090060 NOSIG RMK QFE746
  • 251030Z 19002MPS 150V230 9999 FEW015 02/M02 Q1001 R19/090057 NOSIG RMK QFE746
  • 251000Z 16002MPS 090V230 CAVOK 03/M02 Q1001 R19/090057 NOSIG RMK QFE746

TAF TAF ULOO
Valid from the 25 at 12:00 until the 25 at 21:00 UTC


251056Z 2512/2521 15003MPS 9999 SCT011
BECMG 2514/2516 5000 -SNRA BKN011
TEMPO 2515/2521 10005G10MPS 2700 -SHSNRA BKN007 BKN017CB



MET'MAP, your aeronautical weather chart ! - Copyright ORBIFLY December 2007 - Disclaimer

ORBIFLY MET'MAP TEAM :

Programming & Development : Alexandra Zaïnal
Concept & original design : Baudouin d'Aumeries
Assistance for programming : Marc-Olivier Méhu
Technical & hardware support : Manuel Goepfert

Contact : metmap@orbifly.com




SOURCES & CREDITS :

   NOAA